Norton, North Carolina
Current Conditions -  °F | °C
As of 4:19 PM on Sunday 23 Nov 2014 (Local Time) from KAVL Reporting Station
Moderate Rain Moderate Rain  
Wind Chill: 47°   Ceiling: 800
Heat Index: 47°   Visibility: 2.5mi
Dew Point: 46°   Wind: 0mph
Humidity: 97%   Direction: NA
Pressure: 29.86"   Gusts: NA
Location:  35.2608°N, 83.1173°W
Report Text: KAVL 232119Z 00000KT 2 1/2SM RA BR BKN008 OVC014 08/08 A2986 RMK AO2 P0007 T00830078
Loading
Personal Weather Stations






























Interactive Weather Map New forecast layout! Learn more

10-Day Weather Forecast

Advertisements
Track Severe Weather on mobile